Elliot Lake, Canada
Current Conditions -  °F | °C
As of 7:10 PM on Monday 20 Oct 2014 (Local Time) from CYZE Reporting Station
Overcast Overcast  
Wind Chill:   Ceiling: 2200
Heat Index:   Visibility: 9mi
Dew Point:   Wind: 12mph
Humidity: 87%   Direction: 30°NNE
Pressure: 29.8"   Gusts: 18mph
Location:  46.38°N, 82.65°W
Report Text: CYZE 202310Z AUTO 03010G16KT 9SM SCT017 BKN022 OVC030 09/07 A2980 RMK TS/LTNG TEMPO UNAVBL SLP094
Loading
Personal Weather Stations






























Interactive Weather Map
Tropical Storm Tracking
New forecast layout! Learn more

10-Day Weather Forecast

Advertisements
Track Severe Weather on mobile